sensor_id;sensor_type;location;lat;lon;timestamp;pressure;altitude;pressure_sealevel;temperature;humidity
46379;BME280;32084;42.254;22.744;2023-03-30T00:01:53;95805.00;;;6.43;52.97
46379;BME280;32084;42.254;22.744;2023-03-30T00:04:19;95814.91;;;6.53;53.20
46379;BME280;32084;42.254;22.744;2023-03-30T00:06:47;95806.94;;;6.53;53.39
46379;BME280;32084;42.254;22.744;2023-03-30T00:09:15;95809.09;;;6.59;53.19
46379;BME280;32084;42.254;22.744;2023-03-30T00:11:41;95805.97;;;6.65;52.60
46379;BME280;32084;42.254;22.744;2023-03-30T00:14:08;95815.03;;;6.74;52.59
46379;BME280;32084;42.254;22.744;2023-03-30T00:16:34;95813.81;;;6.78;52.51
46379;BME280;32084;42.254;22.744;2023-03-30T00:19:00;95818.53;;;6.74;51.55
46379;BME280;32084;42.254;22.744;2023-03-30T00:21:26;95813.94;;;6.76;52.35
46379;BME280;32084;42.254;22.744;2023-03-30T00:23:52;95802.59;;;6.74;52.34
46379;BME280;32084;42.254;22.744;2023-03-30T00:26:19;95800.53;;;6.78;52.63
46379;BME280;32084;42.254;22.744;2023-03-30T00:28:45;95799.69;;;6.77;52.55
46379;BME280;32084;42.254;22.744;2023-03-30T00:31:11;95792.69;;;6.65;53.08
46379;BME280;32084;42.254;22.744;2023-03-30T00:33:37;95798.97;;;6.64;53.25
46379;BME280;32084;42.254;22.744;2023-03-30T00:36:03;95795.56;;;6.73;52.66
46379;BME280;32084;42.254;22.744;2023-03-30T00:38:29;95787.59;;;6.73;52.81
46379;BME280;32084;42.254;22.744;2023-03-30T00:40:56;95789.06;;;6.66;52.97
46379;BME280;32084;42.254;22.744;2023-03-30T00:43:23;95784.59;;;6.67;53.32
46379;BME280;32084;42.254;22.744;2023-03-30T00:45:49;95784.34;;;6.70;53.03
46379;BME280;32084;42.254;22.744;2023-03-30T00:48:20;95786.25;;;6.68;53.35
46379;BME280;32084;42.254;22.744;2023-03-30T00:53:17;95780.09;;;6.67;53.40
46379;BME280;32084;42.254;22.744;2023-03-30T00:55:46;95776.38;;;6.70;53.35
46379;BME280;32084;42.254;22.744;2023-03-30T00:58:14;95765.50;;;6.73;53.84
46379;BME280;32084;42.254;22.744;2023-03-30T01:00:41;95770.09;;;6.71;53.80
46379;BME280;32084;42.254;22.744;2023-03-30T01:03:30;95774.44;;;6.72;54.21
46379;BME280;32084;42.254;22.744;2023-03-30T01:05:55;95772.84;;;6.69;54.08
46379;BME280;32084;42.254;22.744;2023-03-30T01:08:21;95768.88;;;6.63;54.00
46379;BME280;32084;42.254;22.744;2023-03-30T01:10:49;95781.81;;;6.68;54.39
46379;BME280;32084;42.254;22.744;2023-03-30T01:13:16;95772.75;;;6.59;54.87
46379;BME280;32084;42.254;22.744;2023-03-30T01:18:34;95768.75;;;6.65;54.39
46379;BME280;32084;42.254;22.744;2023-03-30T01:21:12;95762.00;;;6.61;54.42
46379;BME280;32084;42.254;22.744;2023-03-30T01:23:55;95769.25;;;6.48;56.33
46379;BME280;32084;42.254;22.744;2023-03-30T01:28:51;95764.88;;;6.35;56.78
46379;BME280;32084;42.254;22.744;2023-03-30T01:47:21;95761.63;;;6.09;57.99
46379;BME280;32084;42.254;22.744;2023-03-30T01:52:25;95761.25;;;6.14;57.69
46379;BME280;32084;42.254;22.744;2023-03-30T01:54:55;95763.09;;;6.13;57.66
46379;BME280;32084;42.254;22.744;2023-03-30T01:57:31;95754.84;;;6.16;57.59
46379;BME280;32084;42.254;22.744;2023-03-30T02:00:00;95768.53;;;6.23;57.72
46379;BME280;32084;42.254;22.744;2023-03-30T02:02:42;95760.88;;;6.18;57.65
46379;BME280;32084;42.254;22.744;2023-03-30T02:05:10;95762.97;;;6.26;56.85
46379;BME280;32084;42.254;22.744;2023-03-30T02:07:40;95769.47;;;6.33;56.60
46379;BME280;32084;42.254;22.744;2023-03-30T02:10:08;95765.63;;;6.26;57.00
46379;BME280;32084;42.254;22.744;2023-03-30T02:12:35;95758.72;;;6.23;57.12
46379;BME280;32084;42.254;22.744;2023-03-30T02:15:03;95762.38;;;6.22;57.43
46379;BME280;32084;42.254;22.744;2023-03-30T02:17:32;95759.69;;;6.11;58.76
46379;BME280;32084;42.254;22.744;2023-03-30T02:19:58;95765.00;;;6.11;58.48
46379;BME280;32084;42.254;22.744;2023-03-30T02:22:24;95762.97;;;6.15;58.70
46379;BME280;32084;42.254;22.744;2023-03-30T02:24:52;95764.16;;;6.11;58.61
46379;BME280;32084;42.254;22.744;2023-03-30T02:27:20;95768.25;;;6.03;58.75
46379;BME280;32084;42.254;22.744;2023-03-30T02:29:46;95776.28;;;5.91;59.66
46379;BME280;32084;42.254;22.744;2023-03-30T02:32:32;95777.09;;;5.80;59.94
46379;BME280;32084;42.254;22.744;2023-03-30T02:37:35;95768.94;;;5.94;59.49
46379;BME280;32084;42.254;22.744;2023-03-30T02:48:20;95751.88;;;5.85;60.47
46379;BME280;32084;42.254;22.744;2023-03-30T02:53:17;95770.78;;;5.70;61.22
46379;BME280;32084;42.254;22.744;2023-03-30T02:55:58;95774.19;;;5.72;61.20
46379;BME280;32084;42.254;22.744;2023-03-30T02:58:32;95763.34;;;5.86;61.04
46379;BME280;32084;42.254;22.744;2023-03-30T03:01:02;95767.13;;;5.95;62.16
46379;BME280;32084;42.254;22.744;2023-03-30T03:03:34;95769.25;;;5.90;61.35
46379;BME280;32084;42.254;22.744;2023-03-30T03:06:02;95769.53;;;5.86;61.99
46379;BME280;32084;42.254;22.744;2023-03-30T03:08:30;95776.56;;;5.75;61.85
46379;BME280;32084;42.254;22.744;2023-03-30T03:10:58;95778.50;;;5.73;61.21
46379;BME280;32084;42.254;22.744;2023-03-30T03:13:24;95769.19;;;5.67;61.07
46379;BME280;32084;42.254;22.744;2023-03-30T03:15:52;95775.53;;;5.77;60.95
46379;BME280;32084;42.254;22.744;2023-03-30T03:18:22;95768.19;;;5.81;61.51
46379;BME280;32084;42.254;22.744;2023-03-30T03:20:48;95776.34;;;5.78;60.54
46379;BME280;32084;42.254;22.744;2023-03-30T03:23:15;95767.91;;;5.73;61.25
46379;BME280;32084;42.254;22.744;2023-03-30T03:25:41;95773.94;;;5.75;61.40
46379;BME280;32084;42.254;22.744;2023-03-30T03:28:07;95775.16;;;5.82;60.76
46379;BME280;32084;42.254;22.744;2023-03-30T03:30:33;95775.88;;;5.84;61.77
46379;BME280;32084;42.254;22.744;2023-03-30T03:32:59;95768.91;;;5.83;61.28
46379;BME280;32084;42.254;22.744;2023-03-30T03:35:25;95768.63;;;5.75;61.81
46379;BME280;32084;42.254;22.744;2023-03-30T03:37:54;95770.97;;;5.55;63.19
46379;BME280;32084;42.254;22.744;2023-03-30T03:40:20;95776.34;;;5.42;64.35
46379;BME280;32084;42.254;22.744;2023-03-30T03:42:46;95775.75;;;5.39;63.69
46379;BME280;32084;42.254;22.744;2023-03-30T03:45:13;95777.00;;;5.22;63.49
46379;BME280;32084;42.254;22.744;2023-03-30T03:47:39;95766.44;;;5.33;64.32
46379;BME280;32084;42.254;22.744;2023-03-30T03:50:05;95762.19;;;5.31;63.56
46379;BME280;32084;42.254;22.744;2023-03-30T03:52:34;95763.03;;;5.31;64.06
46379;BME280;32084;42.254;22.744;2023-03-30T03:55:02;95774.06;;;5.38;63.67
46379;BME280;32084;42.254;22.744;2023-03-30T03:57:28;95748.00;;;5.32;63.09
46379;BME280;32084;42.254;22.744;2023-03-30T03:59:54;95768.06;;;5.47;63.65
46379;BME280;32084;42.254;22.744;2023-03-30T04:02:22;95765.16;;;5.50;63.35
46379;BME280;32084;42.254;22.744;2023-03-30T04:04:48;95773.00;;;5.52;62.90
46379;BME280;32084;42.254;22.744;2023-03-30T04:07:14;95782.06;;;5.49;64.14
46379;BME280;32084;42.254;22.744;2023-03-30T04:09:40;95784.34;;;5.54;63.34
46379;BME280;32084;42.254;22.744;2023-03-30T04:12:06;95780.75;;;5.55;64.18
46379;BME280;32084;42.254;22.744;2023-03-30T04:14:33;95782.69;;;5.53;63.61
46379;BME280;32084;42.254;22.744;2023-03-30T04:16:59;95797.84;;;5.51;63.52
46379;BME280;32084;42.254;22.744;2023-03-30T04:19:26;95794.59;;;5.47;63.85
46379;BME280;32084;42.254;22.744;2023-03-30T04:21:52;95785.91;;;5.45;64.55
46379;BME280;32084;42.254;22.744;2023-03-30T04:24:20;95795.56;;;5.22;64.95
46379;BME280;32084;42.254;22.744;2023-03-30T04:26:47;95793.81;;;4.97;65.91
46379;BME280;32084;42.254;22.744;2023-03-30T04:29:14;95793.75;;;4.85;66.10
46379;BME280;32084;42.254;22.744;2023-03-30T04:31:41;95803.28;;;5.01;66.61
46379;BME280;32084;42.254;22.744;2023-03-30T04:34:11;95797.81;;;5.15;66.34
46379;BME280;32084;42.254;22.744;2023-03-30T04:36:38;95809.13;;;5.17;66.45
46379;BME280;32084;42.254;22.744;2023-03-30T04:39:08;95793.09;;;4.95;66.61
46379;BME280;32084;42.254;22.744;2023-03-30T04:41:36;95796.88;;;4.66;67.55
46379;BME280;32084;42.254;22.744;2023-03-30T04:44:03;95800.94;;;4.59;66.91
46379;BME280;32084;42.254;22.744;2023-03-30T04:46:29;95806.50;;;4.80;65.97
46379;BME280;32084;42.254;22.744;2023-03-30T04:48:56;95818.19;;;5.02;66.27
46379;BME280;32084;42.254;22.744;2023-03-30T04:51:22;95810.44;;;5.12;66.42
46379;BME280;32084;42.254;22.744;2023-03-30T04:53:48;95812.97;;;5.13;66.26
46379;BME280;32084;42.254;22.744;2023-03-30T04:56:15;95817.09;;;5.17;66.10
46379;BME280;32084;42.254;22.744;2023-03-30T04:58:41;95816.69;;;5.35;65.32
46379;BME280;32084;42.254;22.744;2023-03-30T05:01:07;95821.50;;;5.30;65.98
46379;BME280;32084;42.254;22.744;2023-03-30T05:03:34;95820.25;;;5.22;65.50
46379;BME280;32084;42.254;22.744;2023-03-30T05:06:00;95826.06;;;5.03;65.75
46379;BME280;32084;42.254;22.744;2023-03-30T05:08:27;95822.44;;;5.04;66.61
46379;BME280;32084;42.254;22.744;2023-03-30T05:10:53;95829.47;;;5.30;65.83
46379;BME280;32084;42.254;22.744;2023-03-30T05:13:19;95828.34;;;5.45;66.11
46379;BME280;32084;42.254;22.744;2023-03-30T05:15:51;95826.78;;;5.54;65.29
46379;BME280;32084;42.254;22.744;2023-03-30T05:18:17;95832.28;;;5.63;65.67
46379;BME280;32084;42.254;22.744;2023-03-30T05:20:43;95828.22;;;5.82;64.53
46379;BME280;32084;42.254;22.744;2023-03-30T05:23:09;95825.44;;;5.96;64.57
46379;BME280;32084;42.254;22.744;2023-03-30T05:25:35;95821.97;;;6.07;64.46
46379;BME280;32084;42.254;22.744;2023-03-30T05:28:01;95828.03;;;6.20;63.27
46379;BME280;32084;42.254;22.744;2023-03-30T05:30:28;95829.94;;;6.30;63.42
46379;BME280;32084;42.254;22.744;2023-03-30T05:32:54;95821.75;;;6.33;63.00
46379;BME280;32084;42.254;22.744;2023-03-30T05:35:20;95825.88;;;6.37;63.07
46379;BME280;32084;42.254;22.744;2023-03-30T05:37:47;95830.94;;;6.40;62.82
46379;BME280;32084;42.254;22.744;2023-03-30T05:40:14;95835.69;;;6.59;61.48
46379;BME280;32084;42.254;22.744;2023-03-30T05:42:40;95839.69;;;6.76;60.90
46379;BME280;32084;42.254;22.744;2023-03-30T05:45:07;95832.16;;;6.92;59.68
46379;BME280;32084;42.254;22.744;2023-03-30T05:47:34;95822.13;;;6.96;59.31
46379;BME280;32084;42.254;22.744;2023-03-30T05:50:00;95828.66;;;6.92;59.01
46379;BME280;32084;42.254;22.744;2023-03-30T05:52:27;95833.03;;;6.93;59.09
46379;BME280;32084;42.254;22.744;2023-03-30T05:54:53;95826.50;;;6.97;59.25
46379;BME280;32084;42.254;22.744;2023-03-30T05:57:19;95824.56;;;6.99;58.82
46379;BME280;32084;42.254;22.744;2023-03-30T05:59:45;95820.78;;;7.13;59.16
46379;BME280;32084;42.254;22.744;2023-03-30T06:02:12;95823.66;;;7.32;58.00
46379;BME280;32084;42.254;22.744;2023-03-30T06:04:38;95823.38;;;7.47;57.77
46379;BME280;32084;42.254;22.744;2023-03-30T06:07:04;95825.69;;;7.40;56.28
46379;BME280;32084;42.254;22.744;2023-03-30T06:09:31;95826.50;;;7.52;58.26
46379;BME280;32084;42.254;22.744;2023-03-30T06:11:57;95825.59;;;7.62;57.95
46379;BME280;32084;42.254;22.744;2023-03-30T06:14:23;95824.09;;;7.37;59.70
46379;BME280;32084;42.254;22.744;2023-03-30T06:16:49;95832.09;;;7.37;60.55
46379;BME280;32084;42.254;22.744;2023-03-30T06:19:15;95826.94;;;7.57;59.21
46379;BME280;32084;42.254;22.744;2023-03-30T06:21:41;95824.53;;;7.65;59.23
46379;BME280;32084;42.254;22.744;2023-03-30T06:24:07;95829.84;;;7.97;58.67
46379;BME280;32084;42.254;22.744;2023-03-30T06:26:33;95838.34;;;8.12;57.36
46379;BME280;32084;42.254;22.744;2023-03-30T06:28:59;95842.38;;;8.07;57.33
46379;BME280;32084;42.254;22.744;2023-03-30T06:31:25;95838.72;;;8.08;56.71
46379;BME280;32084;42.254;22.744;2023-03-30T06:33:51;95843.75;;;8.22;56.47
46379;BME280;32084;42.254;22.744;2023-03-30T06:40:45;95843.47;;;8.25;54.58
46379;BME280;32084;42.254;22.744;2023-03-30T06:43:15;95844.41;;;8.35;56.14
46379;BME280;32084;42.254;22.744;2023-03-30T06:45:42;95836.41;;;8.56;55.25
46379;BME280;32084;42.254;22.744;2023-03-30T06:48:13;95850.38;;;9.41;52.73
46379;BME280;32084;42.254;22.744;2023-03-30T06:50:40;95849.59;;;9.70;52.41
46379;BME280;32084;42.254;22.744;2023-03-30T06:53:06;95860.22;;;9.10;52.17
46379;BME280;32084;42.254;22.744;2023-03-30T06:55:32;95856.59;;;8.80;53.76
46379;BME280;32084;42.254;22.744;2023-03-30T06:57:58;95858.38;;;8.70;55.04
46379;BME280;32084;42.254;22.744;2023-03-30T07:00:24;95851.22;;;8.49;54.77
46379;BME280;32084;42.254;22.744;2023-03-30T07:02:50;95854.59;;;8.72;55.11
46379;BME280;32084;42.254;22.744;2023-03-30T07:05:16;95854.25;;;8.87;54.61
46379;BME280;32084;42.254;22.744;2023-03-30T07:07:43;95849.94;;;8.95;53.29
46379;BME280;32084;42.254;22.744;2023-03-30T07:10:10;95816.47;;;9.22;53.39
46379;BME280;32084;42.254;22.744;2023-03-30T07:12:36;95855.44;;;9.44;52.46
46379;BME280;32084;42.254;22.744;2023-03-30T07:15:03;95855.03;;;9.58;52.84
46379;BME280;32084;42.254;22.744;2023-03-30T07:17:29;95852.81;;;9.73;52.23
46379;BME280;32084;42.254;22.744;2023-03-30T07:19:56;95865.44;;;9.62;52.22
46379;BME280;32084;42.254;22.744;2023-03-30T07:22:22;95858.38;;;9.41;51.93
46379;BME280;32084;42.254;22.744;2023-03-30T07:24:48;95858.66;;;9.38;50.58
46379;BME280;32084;42.254;22.744;2023-03-30T07:27:14;95862.06;;;9.60;51.28
46379;BME280;32084;42.254;22.744;2023-03-30T07:29:40;95862.69;;;10.12;48.92
46379;BME280;32084;42.254;22.744;2023-03-30T07:32:07;95873.31;;;10.80;47.98
46379;BME280;32084;42.254;22.744;2023-03-30T07:34:33;95872.41;;;10.99;46.56
46379;BME280;32084;42.254;22.744;2023-03-30T07:36:59;95872.97;;;11.30;45.83
46379;BME280;32084;42.254;22.744;2023-03-30T07:39:26;95878.59;;;11.93;45.18
46379;BME280;32084;42.254;22.744;2023-03-30T07:41:52;95884.09;;;12.63;43.33
46379;BME280;32084;42.254;22.744;2023-03-30T07:44:18;95881.69;;;13.04;43.54
46379;BME280;32084;42.254;22.744;2023-03-30T07:46:45;95889.06;;;13.62;43.24
46379;BME280;32084;42.254;22.744;2023-03-30T07:49:11;95889.84;;;14.05;40.57
46379;BME280;32084;42.254;22.744;2023-03-30T07:51:37;95893.25;;;14.08;40.43
46379;BME280;32084;42.254;22.744;2023-03-30T07:54:04;95900.81;;;14.20;38.39
46379;BME280;32084;42.254;22.744;2023-03-30T07:56:30;95900.41;;;14.58;39.14
46379;BME280;32084;42.254;22.744;2023-03-30T07:58:58;95895.47;;;15.11;39.43
46379;BME280;32084;42.254;22.744;2023-03-30T08:01:24;95902.22;;;14.74;37.47
46379;BME280;32084;42.254;22.744;2023-03-30T08:03:50;95900.91;;;14.86;38.19
46379;BME280;32084;42.254;22.744;2023-03-30T08:06:16;95897.03;;;14.64;38.51
46379;BME280;32084;42.254;22.744;2023-03-30T08:08:42;95893.47;;;14.96;37.40
46379;BME280;32084;42.254;22.744;2023-03-30T08:11:08;95899.88;;;14.79;36.80
46379;BME280;32084;42.254;22.744;2023-03-30T08:13:35;95891.09;;;14.28;38.97
46379;BME280;32084;42.254;22.744;2023-03-30T08:16:02;95883.53;;;14.39;37.82
46379;BME280;32084;42.254;22.744;2023-03-30T08:18:28;95871.81;;;14.65;37.77
46379;BME280;32084;42.254;22.744;2023-03-30T08:20:54;95880.22;;;14.70;37.58
46379;BME280;32084;42.254;22.744;2023-03-30T08:23:20;95880.88;;;14.64;36.25
46379;BME280;32084;42.254;22.744;2023-03-30T08:25:46;95871.25;;;15.58;37.82
46379;BME280;32084;42.254;22.744;2023-03-30T08:28:18;95883.63;;;15.45;36.29
46379;BME280;32084;42.254;22.744;2023-03-30T08:30:44;95886.28;;;15.53;36.57
46379;BME280;32084;42.254;22.744;2023-03-30T08:33:11;95881.97;;;15.35;36.42
46379;BME280;32084;42.254;22.744;2023-03-30T08:35:38;95875.31;;;15.54;35.92
46379;BME280;32084;42.254;22.744;2023-03-30T08:38:04;95880.97;;;15.76;35.46
46379;BME280;32084;42.254;22.744;2023-03-30T08:40:30;95879.66;;;16.34;35.98
46379;BME280;32084;42.254;22.744;2023-03-30T08:45:25;95884.97;;;16.19;33.75
46379;BME280;32084;42.254;22.744;2023-03-30T08:47:58;95886.91;;;16.34;34.52
46379;BME280;32084;42.254;22.744;2023-03-30T08:52:54;95890.69;;;16.25;33.80
46379;BME280;32084;42.254;22.744;2023-03-30T08:55:21;95884.88;;;16.36;34.19
46379;BME280;32084;42.254;22.744;2023-03-30T08:58:02;95875.53;;;16.47;34.79
46379;BME280;32084;42.254;22.744;2023-03-30T09:03:14;95871.63;;;16.26;33.53
46379;BME280;32084;42.254;22.744;2023-03-30T09:05:57;95873.84;;;16.23;33.75
46379;BME280;32084;42.254;22.744;2023-03-30T09:08:25;95863.41;;;16.66;34.16
46379;BME280;32084;42.254;22.744;2023-03-30T09:10:57;95856.69;;;16.85;33.61
46379;BME280;32084;42.254;22.744;2023-03-30T09:13:25;95854.56;;;16.72;33.03
46379;BME280;32084;42.254;22.744;2023-03-30T09:18:34;95859.16;;;17.69;30.72
46379;BME280;32084;42.254;22.744;2023-03-30T09:21:03;95851.22;;;17.08;31.92
46379;BME280;32084;42.254;22.744;2023-03-30T09:23:30;95844.34;;;15.50;33.13
46379;BME280;32084;42.254;22.744;2023-03-30T09:28:33;95833.25;;;14.89;35.55
46379;BME280;32084;42.254;22.744;2023-03-30T09:31:19;95815.69;;;15.18;35.72
46379;BME280;32084;42.254;22.744;2023-03-30T09:33:56;95818.75;;;14.98;35.52
46379;BME280;32084;42.254;22.744;2023-03-30T09:39:29;95812.66;;;15.13;35.64
46379;BME280;32084;42.254;22.744;2023-03-30T09:44:33;95814.22;;;14.99;35.12
46379;BME280;32084;42.254;22.744;2023-03-30T09:47:00;95805.50;;;14.80;35.96
46379;BME280;32084;42.254;22.744;2023-03-30T09:49:27;95798.97;;;14.58;35.60
46379;BME280;32084;42.254;22.744;2023-03-30T09:51:55;95815.75;;;14.36;36.08
46379;BME280;32084;42.254;22.744;2023-03-30T09:54:21;95807.53;;;14.13;36.67
46379;BME280;32084;42.254;22.744;2023-03-30T09:56:48;95797.09;;;14.18;35.32
46379;BME280;32084;42.254;22.744;2023-03-30T10:01:44;95789.53;;;14.30;35.95
46379;BME280;32084;42.254;22.744;2023-03-30T10:04:10;95788.53;;;14.22;35.46
46379;BME280;32084;42.254;22.744;2023-03-30T10:06:38;95791.88;;;14.24;36.18
46379;BME280;32084;42.254;22.744;2023-03-30T10:09:05;95784.97;;;14.55;35.72
46379;BME280;32084;42.254;22.744;2023-03-30T10:11:36;95775.06;;;14.72;36.43
46379;BME280;32084;42.254;22.744;2023-03-30T10:14:03;95789.41;;;15.59;34.91
46379;BME280;32084;42.254;22.744;2023-03-30T10:16:30;95781.06;;;16.00;33.44
46379;BME280;32084;42.254;22.744;2023-03-30T10:19:03;95783.53;;;15.87;33.47
46379;BME280;32084;42.254;22.744;2023-03-30T10:21:31;95782.75;;;16.25;32.97
46379;BME280;32084;42.254;22.744;2023-03-30T10:26:27;95780.53;;;16.66;33.29
46379;BME280;32084;42.254;22.744;2023-03-30T10:28:56;95778.34;;;16.24;33.69
46379;BME280;32084;42.254;22.744;2023-03-30T10:31:25;95762.53;;;15.74;33.64
46379;BME280;32084;42.254;22.744;2023-03-30T10:33:54;95762.03;;;15.39;34.41
46379;BME280;32084;42.254;22.744;2023-03-30T10:36:21;95756.63;;;15.39;33.93
46379;BME280;32084;42.254;22.744;2023-03-30T10:38:48;95751.56;;;15.76;33.93
46379;BME280;32084;42.254;22.744;2023-03-30T10:41:16;95747.03;;;16.23;33.48
46379;BME280;32084;42.254;22.744;2023-03-30T10:43:45;95738.28;;;16.73;33.73
46379;BME280;32084;42.254;22.744;2023-03-30T10:46:14;95741.00;;;16.88;31.82
46379;BME280;32084;42.254;22.744;2023-03-30T10:48:55;95741.28;;;16.93;32.65
46379;BME280;32084;42.254;22.744;2023-03-30T10:54:17;95738.31;;;16.12;33.19
46379;BME280;32084;42.254;22.744;2023-03-30T10:56:49;95733.56;;;16.37;32.96
46379;BME280;32084;42.254;22.744;2023-03-30T11:04:43;95724.69;;;15.91;34.15
46379;BME280;32084;42.254;22.744;2023-03-30T11:07:32;95723.59;;;16.00;33.53
46379;BME280;32084;42.254;22.744;2023-03-30T11:10:05;95732.69;;;15.99;32.44
46379;BME280;32084;42.254;22.744;2023-03-30T11:12:34;95719.59;;;15.96;34.89
46379;BME280;32084;42.254;22.744;2023-03-30T11:15:08;95709.53;;;16.28;34.03
46379;BME280;32084;42.254;22.744;2023-03-30T11:17:40;95706.09;;;16.34;33.76
46379;BME280;32084;42.254;22.744;2023-03-30T11:20:27;95707.50;;;16.07;34.04
46379;BME280;32084;42.254;22.744;2023-03-30T11:23:05;95700.59;;;15.89;33.64
46379;BME280;32084;42.254;22.744;2023-03-30T11:25:36;95698.59;;;16.06;33.00
46379;BME280;32084;42.254;22.744;2023-03-30T11:28:08;95690.81;;;16.11;33.64
46379;BME280;32084;42.254;22.744;2023-03-30T11:30:36;95692.44;;;16.35;34.02
46379;BME280;32084;42.254;22.744;2023-03-30T11:35:52;95695.31;;;16.34;33.97
46379;BME280;32084;42.254;22.744;2023-03-30T11:38:20;95691.25;;;16.00;33.00
46379;BME280;32084;42.254;22.744;2023-03-30T11:40:50;95679.31;;;16.47;32.82
46379;BME280;32084;42.254;22.744;2023-03-30T11:43:19;95685.03;;;16.82;32.65
46379;BME280;32084;42.254;22.744;2023-03-30T11:51:27;95664.44;;;16.81;32.50
46379;BME280;32084;42.254;22.744;2023-03-30T11:53:32;95668.47;;;16.85;34.22
46379;BME280;32084;42.254;22.744;2023-03-30T11:58:33;95658.78;;;16.91;33.51
46379;BME280;32084;42.254;22.744;2023-03-30T12:03:45;95639.09;;;17.12;33.27
46379;BME280;32084;42.254;22.744;2023-03-30T12:13:52;95630.13;;;17.48;32.60
46379;BME280;32084;42.254;22.744;2023-03-30T12:16:19;95630.84;;;17.20;32.65
46379;BME280;32084;42.254;22.744;2023-03-30T12:18:54;95611.09;;;16.98;34.08
46379;BME280;32084;42.254;22.744;2023-03-30T12:21:32;95613.97;;;16.52;35.05
46379;BME280;32084;42.254;22.744;2023-03-30T12:26:46;95606.06;;;17.16;34.35
46379;BME280;32084;42.254;22.744;2023-03-30T12:29:14;95614.59;;;17.13;34.17
46379;BME280;32084;42.254;22.744;2023-03-30T12:31:49;95605.72;;;17.20;34.66
46379;BME280;32084;42.254;22.744;2023-03-30T12:34:16;95600.56;;;17.25;33.91
46379;BME280;32084;42.254;22.744;2023-03-30T12:40:00;95603.28;;;16.44;32.64
46379;BME280;32084;42.254;22.744;2023-03-30T12:44:32;95586.91;;;16.15;34.65
46379;BME280;32084;42.254;22.744;2023-03-30T12:57:16;95559.25;;;16.58;34.63
46379;BME280;32084;42.254;22.744;2023-03-30T13:04:53;95545.47;;;17.04;34.60
46379;BME280;32084;42.254;22.744;2023-03-30T13:07:21;95548.75;;;17.43;34.87
46379;BME280;32084;42.254;22.744;2023-03-30T13:12:45;95555.19;;;17.63;30.93
46379;BME280;32084;42.254;22.744;2023-03-30T13:20:34;95527.72;;;17.16;32.92
46379;BME280;32084;42.254;22.744;2023-03-30T13:23:57;95517.63;;;17.25;33.18
46379;BME280;32084;42.254;22.744;2023-03-30T13:33:53;95510.09;;;17.42;32.48
46379;BME280;32084;42.254;22.744;2023-03-30T13:36:23;95504.13;;;17.25;32.63
46379;BME280;32084;42.254;22.744;2023-03-30T13:51:23;95488.91;;;16.81;31.72
46379;BME280;32084;42.254;22.744;2023-03-30T13:53:54;95488.47;;;16.77;32.46
46379;BME280;32084;42.254;22.744;2023-03-30T13:56:22;95473.72;;;16.80;32.76
46379;BME280;32084;42.254;22.744;2023-03-30T13:58:57;95470.91;;;16.88;32.94
46379;BME280;32084;42.254;22.744;2023-03-30T14:01:27;95470.38;;;16.78;32.87
46379;BME280;32084;42.254;22.744;2023-03-30T14:03:54;95470.00;;;16.96;32.95
46379;BME280;32084;42.254;22.744;2023-03-30T14:06:24;95470.72;;;16.90;32.13
46379;BME280;32084;42.254;22.744;2023-03-30T14:09:03;95464.06;;;16.71;32.71
46379;BME280;32084;42.254;22.744;2023-03-30T14:14:00;95467.72;;;17.00;31.97
46379;BME280;32084;42.254;22.744;2023-03-30T14:16:27;95462.06;;;16.94;31.96
46379;BME280;32084;42.254;22.744;2023-03-30T14:21:48;95451.72;;;17.26;33.26
46379;BME280;32084;42.254;22.744;2023-03-30T14:24:18;95463.75;;;17.17;32.46
46379;BME280;32084;42.254;22.744;2023-03-30T14:26:50;95455.00;;;17.15;32.31
46379;BME280;32084;42.254;22.744;2023-03-30T14:29:18;95468.72;;;17.20;32.47
46379;BME280;32084;42.254;22.744;2023-03-30T14:31:45;95462.63;;;16.90;31.98
46379;BME280;32084;42.254;22.744;2023-03-30T14:34:21;95465.53;;;16.88;32.77
46379;BME280;32084;42.254;22.744;2023-03-30T14:36:47;95456.59;;;16.88;33.62
46379;BME280;32084;42.254;22.744;2023-03-30T14:39:13;95447.72;;;16.94;32.78
46379;BME280;32084;42.254;22.744;2023-03-30T14:41:40;95446.50;;;16.96;32.20
46379;BME280;32084;42.254;22.744;2023-03-30T14:44:06;95439.69;;;17.01;33.70
46379;BME280;32084;42.254;22.744;2023-03-30T14:46:40;95445.25;;;16.77;33.20
46379;BME280;32084;42.254;22.744;2023-03-30T14:49:10;95434.53;;;16.84;33.33
46379;BME280;32084;42.254;22.744;2023-03-30T14:51:42;95429.31;;;16.83;32.17
46379;BME280;32084;42.254;22.744;2023-03-30T14:54:14;95421.72;;;16.71;32.68
46379;BME280;32084;42.254;22.744;2023-03-30T14:56:42;95430.03;;;16.70;32.38
46379;BME280;32084;42.254;22.744;2023-03-30T14:59:10;95413.28;;;16.59;32.48
46379;BME280;32084;42.254;22.744;2023-03-30T15:01:37;95414.97;;;16.61;32.92
46379;BME280;32084;42.254;22.744;2023-03-30T15:04:06;95419.91;;;16.57;32.67
46379;BME280;32084;42.254;22.744;2023-03-30T15:06:34;95416.38;;;16.56;32.81
46379;BME280;32084;42.254;22.744;2023-03-30T15:09:02;95414.97;;;16.61;32.71
46379;BME280;32084;42.254;22.744;2023-03-30T15:11:29;95414.16;;;16.60;32.23
46379;BME280;32084;42.254;22.744;2023-03-30T15:13:57;95414.00;;;16.68;32.73
46379;BME280;32084;42.254;22.744;2023-03-30T15:16:28;95412.03;;;16.77;32.41
46379;BME280;32084;42.254;22.744;2023-03-30T15:18:58;95409.44;;;16.69;31.57
46379;BME280;32084;42.254;22.744;2023-03-30T15:21:26;95408.53;;;16.62;32.53
46379;BME280;32084;42.254;22.744;2023-03-30T15:23:54;95411.50;;;16.45;31.52
46379;BME280;32084;42.254;22.744;2023-03-30T15:26:23;95409.56;;;16.39;32.14
46379;BME280;32084;42.254;22.744;2023-03-30T15:28:52;95412.19;;;16.54;32.74
46379;BME280;32084;42.254;22.744;2023-03-30T15:31:20;95409.88;;;16.51;32.18
46379;BME280;32084;42.254;22.744;2023-03-30T15:33:49;95407.44;;;16.56;31.72
46379;BME280;32084;42.254;22.744;2023-03-30T15:36:17;95407.69;;;16.61;31.99